Time;durP1;ratioP1;P1;durP2;ratioP2;P2;SDS_P1;SDS_P2;PMS_P1;PMS_P2;Temp;Humidity;BMP_temperature;BMP_pressure;BME280_temperature;BME280_humidity;BME280_pressure;Samples;Min_cycle;Max_cycle;Signal;HPM_P1;HPM_P2
2021/07/08 00:00:00;;;;;;;48.13;44.83;;;11.40;99.90;;;;;;5032333;28;20033;-62
2021/07/08 00:02:28;;;;;;;48.50;45.03;;;11.50;99.90;;;;;;5033573;28;20458;-63
2021/07/08 00:04:55;;;;;;;47.35;44.08;;;11.60;99.90;;;;;;5033192;28;20041;-63
2021/07/08 00:07:22;;;;;;;46.53;43.60;;;11.70;99.90;;;;;;5032705;28;20026;-64
2021/07/08 00:09:50;;;;;;;46.83;43.72;;;11.70;99.90;;;;;;5033314;28;20019;-64
2021/07/08 00:12:17;;;;;;;45.80;43.00;;;11.80;99.90;;;;;;5033212;28;20072;-64
2021/07/08 00:14:44;;;;;;;48.70;45.60;;;11.90;99.90;;;;;;5033247;28;20026;-64
2021/07/08 00:17:12;;;;;;;47.60;44.45;;;11.80;99.90;;;;;;5033090;28;20109;-64
2021/07/08 00:19:39;;;;;;;49.70;46.42;;;11.80;99.90;;;;;;5033082;28;20049;-66
2021/07/08 00:22:06;;;;;;;49.88;46.53;;;11.80;99.90;;;;;;5033232;28;20478;-65
2021/07/08 00:24:34;;;;;;;46.83;43.55;;;11.90;99.90;;;;;;5033110;28;20116;-64
2021/07/08 00:27:01;;;;;;;45.33;42.33;;;12.00;99.90;;;;;;5033140;28;20463;-61
2021/07/08 00:29:28;;;;;;;46.05;43.00;;;12.10;99.90;;;;;;5032999;28;20053;-61
2021/07/08 00:31:56;;;;;;;44.75;41.85;;;12.00;99.90;;;;;;5032673;28;20053;-60
2021/07/08 00:34:23;;;;;;;46.20;43.15;;;12.10;99.90;;;;;;5032843;28;20068;-60
2021/07/08 00:36:50;;;;;;;44.15;41.30;;;12.10;99.90;;;;;;5033015;28;20025;-60
2021/07/08 00:39:18;;;;;;;43.28;40.67;;;12.40;99.90;;;;;;5032601;28;20013;-60
2021/07/08 00:41:45;;;;;;;46.33;43.53;;;12.40;99.90;;;;;;5032567;28;20109;-60
2021/07/08 00:44:12;;;;;;;44.35;41.58;;;12.50;99.90;;;;;;5032713;28;20502;-59
2021/07/08 00:46:41;;;;;;;46.17;42.92;;;12.70;99.90;;;;;;5032709;28;20017;-60
2021/07/08 00:49:08;;;;;;;43.88;41.15;;;12.90;99.90;;;;;;5032678;28;20025;-60
2021/07/08 00:51:35;;;;;;;43.78;40.85;;;13.00;99.90;;;;;;5032751;28;20537;-60
2021/07/08 00:54:03;;;;;;;40.70;37.95;;;13.10;99.90;;;;;;5032823;28;20099;-61
2021/07/08 00:56:34;;;;;;;38.83;36.33;;;13.10;99.90;;;;;;5032808;28;20421;-61
2021/07/08 00:59:11;;;;;;;38.90;36.30;;;13.10;99.90;;;;;;5032712;28;20018;-60
2021/07/08 01:01:39;;;;;;;38.42;35.78;;;13.10;99.90;;;;;;5032637;28;20029;-60
2021/07/08 01:04:07;;;;;;;38.22;35.47;;;13.20;99.90;;;;;;5032608;28;20064;-62
2021/07/08 01:06:39;;;;;;;37.33;34.95;;;13.30;99.90;;;;;;5032711;28;20033;-61
2021/07/08 01:09:06;;;;;;;35.72;33.35;;;13.40;99.90;;;;;;5032645;28;20108;-61
2021/07/08 01:11:34;;;;;;;34.72;32.60;;;13.40;99.90;;;;;;5032663;28;20025;-59
2021/07/08 01:14:01;;;;;;;34.55;32.05;;;13.60;99.90;;;;;;5032603;28;20025;-59
2021/07/08 01:16:29;;;;;;;35.47;33.25;;;13.60;99.90;;;;;;5031290;28;20025;-59
2021/07/08 01:18:56;;;;;;;34.28;31.90;;;13.70;99.90;;;;;;5036108;28;20017;-61
2021/07/08 01:21:35;;;;;;;32.08;30.08;;;13.60;99.90;;;;;;5036162;28;20022;-62
2021/07/08 01:24:05;;;;;;;33.15;30.70;;;13.40;99.90;;;;;;5036002;28;20037;-60
2021/07/08 01:26:32;;;;;;;31.98;29.85;;;13.50;99.90;;;;;;5036328;28;20048;-61
2021/07/08 01:29:00;;;;;;;32.50;29.90;;;13.70;99.90;;;;;;5036006;28;20109;-60
2021/07/08 01:31:28;;;;;;;31.15;28.90;;;13.90;99.90;;;;;;5035903;28;20144;-60
2021/07/08 01:33:55;;;;;;;31.80;29.52;;;14.10;99.90;;;;;;5035953;28;20025;-61
2021/07/08 01:36:23;;;;;;;31.05;28.85;;;14.10;99.90;;;;;;5036082;28;20021;-60
2021/07/08 01:38:51;;;;;;;30.13;28.02;;;14.20;99.90;;;;;;5035797;28;20036;-61
2021/07/08 01:41:18;;;;;;;27.80;25.75;;;14.30;99.90;;;;;;5035945;28;20037;-60
2021/07/08 01:43:46;;;;;;;27.02;24.83;;;14.40;99.90;;;;;;5035831;28;20025;-60
2021/07/08 01:46:16;;;;;;;23.42;21.95;;;14.40;99.90;;;;;;5035884;28;20033;-60
2021/07/08 01:48:44;;;;;;;24.00;21.98;;;14.30;99.90;;;;;;5035836;28;20029;-60
2021/07/08 01:51:27;;;;;;;21.42;19.92;;;14.40;99.90;;;;;;5035578;28;20025;-59
2021/07/08 01:53:54;;;;;;;21.27;19.98;;;14.60;99.90;;;;;;5035510;28;20429;-60
2021/07/08 01:56:22;;;;;;;21.52;19.73;;;15.00;99.90;;;;;;5035542;28;20140;-60
2021/07/08 01:58:52;;;;;;;19.83;17.27;;;15.10;99.90;;;;;;5035583;28;20018;-60
2021/07/08 02:01:20;;;;;;;17.15;16.05;;;15.10;99.90;;;;;;5035478;28;20111;-61
2021/07/08 02:03:48;;;;;;;16.48;14.90;;;15.00;99.90;;;;;;5035361;28;20045;-59
2021/07/08 02:06:16;;;;;;;15.40;14.40;;;15.10;99.90;;;;;;5035456;28;20109;-60
2021/07/08 02:08:44;;;;;;;16.20;15.02;;;15.30;99.90;;;;;;5035506;28;20036;-60
2021/07/08 02:11:12;;;;;;;17.80;16.27;;;15.00;99.90;;;;;;5035355;28;20128;-62
2021/07/08 02:13:40;;;;;;;19.77;17.67;;;15.00;99.90;;;;;;5035575;28;20026;-62
2021/07/08 02:16:10;;;;;;;15.20;13.90;;;14.90;99.90;;;;;;5035485;28;20034;-64
2021/07/08 02:18:38;;;;;;;14.68;13.55;;;15.00;99.90;;;;;;5035453;28;20080;-64
2021/07/08 02:21:06;;;;;;;15.38;14.15;;;15.00;99.90;;;;;;5035531;28;20045;-64
2021/07/08 02:23:36;;;;;;;15.10;13.93;;;15.20;99.90;;;;;;5035046;28;20014;-61
2021/07/08 02:26:05;;;;;;;13.23;12.23;;;15.30;99.90;;;;;;5035214;28;20053;-62
2021/07/08 02:28:33;;;;;;;13.88;12.70;;;15.60;99.90;;;;;;5034363;28;20024;-62
2021/07/08 02:31:01;;;;;;;13.45;12.13;;;15.80;99.90;;;;;;5034828;28;20363;-62
2021/07/08 02:33:29;;;;;;;13.70;12.25;;;15.70;99.90;;;;;;5034963;28;20076;-63
2021/07/08 02:35:56;;;;;;;12.43;11.43;;;15.70;99.90;;;;;;5033746;28;20076;-63
2021/07/08 02:38:24;;;;;;;12.57;11.50;;;15.60;99.90;;;;;;5034875;28;20409;-62
2021/07/08 02:40:52;;;;;;;14.27;12.88;;;15.70;99.90;;;;;;5034833;28;20049;-63
2021/07/08 02:43:19;;;;;;;12.25;11.25;;;15.80;99.90;;;;;;5033589;28;20022;-59
2021/07/08 02:45:47;;;;;;;13.15;11.50;;;15.80;99.90;;;;;;5034715;28;20390;-60
2021/07/08 02:48:18;;;;;;;11.63;10.65;;;16.00;99.90;;;;;;5034518;28;20386;-58
2021/07/08 02:50:48;;;;;;;14.40;11.05;;;16.00;99.90;;;;;;5034469;28;20024;-59
2021/07/08 02:53:16;;;;;;;11.45;10.40;;;16.20;99.90;;;;;;5034551;28;20029;-58
2021/07/08 02:55:43;;;;;;;12.43;11.15;;;16.20;99.90;;;;;;5034555;28;20048;-58
2021/07/08 02:58:12;;;;;;;13.18;11.15;;;16.00;99.90;;;;;;5034289;28;20455;-58
2021/07/08 03:00:39;;;;;;;11.93;10.75;;;15.90;99.90;;;;;;5033130;28;20021;-58
2021/07/08 03:03:07;;;;;;;11.52;10.43;;;15.90;99.90;;;;;;5034530;28;20022;-58
2021/07/08 03:05:35;;;;;;;11.68;10.65;;;16.10;99.90;;;;;;5034160;28;20052;-59
2021/07/08 03:08:03;;;;;;;11.25;10.18;;;16.40;99.90;;;;;;5034211;28;20049;-58
2021/07/08 03:10:32;;;;;;;9.43;8.63;;;16.70;99.90;;;;;;5034519;28;20029;-59
2021/07/08 03:13:00;;;;;;;10.25;9.35;;;16.70;99.90;;;;;;5033995;28;20018;-59
2021/07/08 03:15:28;;;;;;;11.85;9.82;;;16.60;99.90;;;;;;5032797;28;20045;-59
2021/07/08 03:17:57;;;;;;;9.38;8.57;;;16.60;99.90;;;;;;5034114;28;20051;-59
2021/07/08 03:20:30;;;;;;;8.57;7.75;;;16.40;99.90;;;;;;5034006;28;20018;-59
2021/07/08 03:22:57;;;;;;;9.98;7.75;;;16.50;99.90;;;;;;5033328;28;20044;-58
2021/07/08 03:25:25;;;;;;;8.35;7.65;;;16.60;99.90;;;;;;5033964;28;20021;-59
2021/07/08 03:27:54;;;;;;;8.48;7.80;;;16.60;99.90;;;;;;5034122;28;20032;-58
2021/07/08 03:30:24;;;;;;;7.95;7.35;;;16.60;99.90;;;;;;5033829;28;20033;-58
2021/07/08 03:32:52;;;;;;;7.63;6.90;;;16.60;99.90;;;;;;5033786;28;20025;-59
2021/07/08 03:35:19;;;;;;;7.32;6.72;;;16.60;99.90;;;;;;5033674;28;20021;-59
2021/07/08 03:37:47;;;;;;;7.50;6.13;;;16.60;99.90;;;;;;5033769;28;20026;-60
2021/07/08 03:40:16;;;;;;;8.15;6.88;;;16.50;99.90;;;;;;5032374;28;20188;-59
2021/07/08 03:42:44;;;;;;;9.57;7.00;;;16.30;99.90;;;;;;5033547;28;20060;-59
2021/07/08 03:45:13;;;;;;;9.07;7.50;;;16.20;99.90;;;;;;5033564;28;20502;-59
2021/07/08 03:47:41;;;;;;;7.78;7.05;;;16.40;99.90;;;;;;5033690;28;20025;-58
2021/07/08 03:50:11;;;;;;;6.80;6.05;;;16.50;99.90;;;;;;5033542;28;20431;-59
2021/07/08 03:52:41;;;;;;;7.47;6.88;;;16.30;99.90;;;;;;5033395;28;20033;-58
2021/07/08 03:55:11;;;;;;;7.97;6.28;;;16.30;99.90;;;;;;5033537;28;20025;-59
2021/07/08 03:57:56;;;;;;;6.68;5.93;;;16.20;99.90;;;;;;5033470;28;20100;-58
2021/07/08 04:00:38;;;;;;;6.80;6.18;;;16.20;99.90;;;;;;5033491;28;20013;-59
2021/07/08 04:03:14;;;;;;;7.07;6.55;;;16.00;99.90;;;;;;5033509;28;20044;-59
2021/07/08 04:05:43;;;;;;;7.10;6.60;;;15.90;99.90;;;;;;5033292;28;20056;-59
2021/07/08 04:08:11;;;;;;;6.70;6.10;;;15.80;99.90;;;;;;5033465;28;20029;-60
2021/07/08 04:10:40;;;;;;;6.65;6.28;;;15.70;99.90;;;;;;5033213;28;20048;-59
2021/07/08 04:13:13;;;;;;;7.20;6.38;;;15.70;99.90;;;;;;5033329;28;20140;-57
2021/07/08 04:15:42;;;;;;;7.38;6.60;;;15.60;99.90;;;;;;5031826;28;20049;-60
2021/07/08 04:18:10;;;;;;;7.30;6.65;;;15.50;99.90;;;;;;5031846;28;20061;-60
2021/07/08 04:20:39;;;;;;;6.63;6.07;;;15.50;99.90;;;;;;5033163;28;20026;-59
2021/07/08 04:23:10;;;;;;;6.47;5.97;;;15.60;99.90;;;;;;5033645;28;20029;-58
2021/07/08 04:25:39;;;;;;;10.02;5.85;;;15.70;99.90;;;;;;5033562;28;20116;-60
2021/07/08 04:28:08;;;;;;;6.57;6.07;;;15.70;99.90;;;;;;5033103;28;20087;-59
2021/07/08 04:30:36;;;;;;;8.73;6.65;;;15.70;99.90;;;;;;5031735;28;20026;-60
2021/07/08 04:33:04;;;;;;;6.40;5.90;;;15.50;99.90;;;;;;5033010;28;20029;-60
2021/07/08 04:35:36;;;;;;;7.25;6.50;;;15.50;99.90;;;;;;5033023;28;20023;-60
2021/07/08 04:38:06;;;;;;;7.00;6.40;;;15.60;99.90;;;;;;5032992;28;20033;-60
2021/07/08 04:40:34;;;;;;;7.45;6.75;;;15.60;99.90;;;;;;5032026;28;20128;-59
2021/07/08 04:43:02;;;;;;;6.88;6.43;;;15.60;99.90;;;;;;5031687;28;20033;-59
2021/07/08 04:45:30;;;;;;;6.90;6.30;;;15.60;99.90;;;;;;5032831;28;20025;-59
2021/07/08 04:47:57;;;;;;;7.20;6.70;;;15.60;99.90;;;;;;5032845;28;20394;-59
2021/07/08 04:50:26;;;;;;;7.00;6.40;;;15.70;99.90;;;;;;5033129;28;20017;-60
2021/07/08 04:52:54;;;;;;;9.43;6.65;;;15.70;99.90;;;;;;5034642;28;20032;-59
2021/07/08 04:55:23;;;;;;;8.20;7.60;;;15.80;99.90;;;;;;5036738;28;20491;-59
2021/07/08 04:57:52;;;;;;;8.50;7.70;;;15.70;99.90;;;;;;5036697;28;20029;-59
2021/07/08 05:00:21;;;;;;;7.63;7.03;;;15.90;99.90;;;;;;5036963;28;20061;-65
2021/07/08 05:02:50;;;;;;;8.63;7.78;;;16.00;99.90;;;;;;5037061;28;20083;-65
2021/07/08 05:05:18;;;;;;;6.80;6.18;;;16.00;99.90;;;;;;5036788;28;20417;-64
2021/07/08 05:07:46;;;;;;;7.15;6.50;;;16.00;99.90;;;;;;5035645;28;20148;-61
2021/07/08 05:10:15;;;;;;;7.72;7.00;;;16.00;99.90;;;;;;5036792;28;20394;-61
2021/07/08 05:12:44;;;;;;;7.85;7.25;;;15.80;99.90;;;;;;5036486;28;20366;-62
2021/07/08 05:15:14;;;;;;;7.82;6.80;;;15.70;99.90;;;;;;5036388;28;20501;-62
2021/07/08 05:17:42;;;;;;;8.10;7.40;;;15.50;99.90;;;;;;5036298;28;20512;-62
2021/07/08 05:20:11;;;;;;;8.45;7.80;;;15.40;99.90;;;;;;5036827;28;20030;-62
2021/07/08 05:22:40;;;;;;;7.47;6.97;;;15.30;99.90;;;;;;5035342;28;20476;-63
2021/07/08 05:25:10;;;;;;;7.32;6.82;;;15.20;99.90;;;;;;5036589;28;20509;-67
2021/07/08 05:27:38;;;;;;;7.75;6.95;;;15.10;99.90;;;;;;5036549;28;20096;-63
2021/07/08 05:30:07;;;;;;;7.80;7.10;;;15.10;99.90;;;;;;5035004;28;20573;-63
2021/07/08 05:32:35;;;;;;;7.68;7.07;;;15.10;99.90;;;;;;5036221;28;20501;-62
2021/07/08 05:35:04;;;;;;;7.68;7.18;;;15.10;99.90;;;;;;5036042;28;20022;-62
2021/07/08 05:37:31;;;;;;;7.95;7.40;;;15.00;99.90;;;;;;5036135;28;20527;-62
2021/07/08 05:39:59;;;;;;;7.95;7.28;;;15.00;99.90;;;;;;5035965;28;20029;-62
2021/07/08 05:42:26;;;;;;;8.40;7.70;;;15.00;99.90;;;;;;5036050;28;20026;-62
2021/07/08 05:44:54;;;;;;;8.18;7.55;;;15.00;99.90;;;;;;5035797;28;20026;-62
2021/07/08 05:47:22;;;;;;;8.45;7.63;;;15.00;99.90;;;;;;5035745;28;20017;-62
2021/07/08 05:49:49;;;;;;;8.60;8.10;;;15.00;99.90;;;;;;5035723;28;20091;-60
2021/07/08 05:52:17;;;;;;;8.55;7.88;;;15.10;99.90;;;;;;5035659;28;20109;-60
2021/07/08 05:54:44;;;;;;;11.02;8.15;;;15.00;99.90;;;;;;5035615;28;20041;-60
2021/07/08 05:57:11;;;;;;;9.18;8.57;;;15.00;99.90;;;;;;5035514;28;20053;-60
2021/07/08 05:59:38;;;;;;;8.98;8.38;;;15.00;99.90;;;;;;5034331;28;20031;-61
2021/07/08 06:02:06;;;;;;;8.90;8.30;;;15.00;99.90;;;;;;5035436;28;20032;-61
2021/07/08 06:04:33;;;;;;;9.73;8.82;;;14.90;99.90;;;;;;5034105;28;20042;-60
2021/07/08 06:07:01;;;;;;;9.80;8.90;;;14.80;99.90;;;;;;5035364;28;20029;-61
2021/07/08 06:09:28;;;;;;;10.32;9.50;;;14.70;99.90;;;;;;5033947;28;20029;-61
2021/07/08 06:11:56;;;;;;;10.93;10.05;;;14.70;99.90;;;;;;5035126;28;20391;-60
2021/07/08 06:14:23;;;;;;;11.93;11.00;;;14.60;99.90;;;;;;5035092;28;20028;-60
2021/07/08 06:16:50;;;;;;;12.20;11.10;;;14.50;99.90;;;;;;5035310;28;20474;-60
2021/07/08 06:19:18;;;;;;;12.13;11.20;;;14.40;99.90;;;;;;5035062;28;20029;-60
2021/07/08 06:21:48;;;;;;;12.88;11.85;;;14.30;99.90;;;;;;5035177;28;20037;-61
2021/07/08 06:24:16;;;;;;;13.32;12.40;;;14.20;99.90;;;;;;5035027;28;20032;-59
2021/07/08 06:26:44;;;;;;;13.90;12.80;;;14.10;99.90;;;;;;5035160;28;20037;-61
2021/07/08 06:29:11;;;;;;;13.30;12.57;;;14.00;99.90;;;;;;5034856;28;20501;-60
2021/07/08 06:31:38;;;;;;;14.60;13.68;;;13.80;99.90;;;;;;5034926;28;20025;-60
2021/07/08 06:34:07;;;;;;;14.52;13.63;;;13.60;99.90;;;;;;5034819;28;20022;-60
2021/07/08 06:36:34;;;;;;;15.90;14.88;;;13.50;99.90;;;;;;5034764;28;20390;-60
2021/07/08 06:39:03;;;;;;;16.77;15.23;;;13.40;99.90;;;;;;5034882;28;20108;-59
2021/07/08 06:41:31;;;;;;;16.20;15.30;;;13.30;99.90;;;;;;5033707;28;20026;-60
2021/07/08 06:43:59;;;;;;;17.40;16.40;;;13.20;99.90;;;;;;5034622;28;20040;-60
2021/07/08 06:46:28;;;;;;;18.50;17.35;;;13.20;99.90;;;;;;5033320;28;20025;-60
2021/07/08 06:48:56;;;;;;;19.35;17.80;;;13.10;99.90;;;;;;5034418;28;20108;-59
2021/07/08 06:51:23;;;;;;;18.80;17.70;;;13.10;99.90;;;;;;5034573;28;20057;-60
2021/07/08 06:53:53;;;;;;;19.30;18.15;;;13.00;99.90;;;;;;5034498;28;20025;-60
2021/07/08 06:56:21;;;;;;;20.73;19.43;;;13.00;99.90;;;;;;5034375;28;20025;-60
2021/07/08 06:58:49;;;;;;;20.63;19.45;;;12.90;99.90;;;;;;5034456;28;20270;-61
2021/07/08 07:01:17;;;;;;;21.10;19.90;;;12.80;99.90;;;;;;5034413;28;20021;-60
2021/07/08 07:03:44;;;;;;;22.77;20.92;;;12.80;99.90;;;;;;5034243;28;20503;-61
2021/07/08 07:06:12;;;;;;;21.20;19.83;;;12.60;99.90;;;;;;5034209;28;20025;-61
2021/07/08 07:08:39;;;;;;;22.25;20.95;;;12.60;99.90;;;;;;5034452;28;20025;-61
2021/07/08 07:11:07;;;;;;;22.15;20.83;;;12.50;99.90;;;;;;5034005;28;20025;-61
2021/07/08 07:13:34;;;;;;;22.52;21.13;;;12.30;99.90;;;;;;5034187;28;20083;-62
2021/07/08 07:16:02;;;;;;;22.77;21.52;;;12.20;99.90;;;;;;5033883;28;20022;-61
2021/07/08 07:18:29;;;;;;;23.48;22.10;;;12.10;99.90;;;;;;5034067;28;20029;-60
2021/07/08 07:20:56;;;;;;;24.05;22.58;;;12.10;99.90;;;;;;5034089;28;20018;-60
2021/07/08 07:23:24;;;;;;;23.80;22.55;;;12.00;99.90;;;;;;5033933;28;20540;-61
2021/07/08 07:25:51;;;;;;;26.25;24.55;;;11.90;99.90;;;;;;5033840;28;20032;-61
2021/07/08 07:28:19;;;;;;;26.67;24.52;;;11.80;99.90;;;;;;5033622;28;20024;-59
2021/07/08 07:30:46;;;;;;;28.75;26.80;;;11.90;99.90;;;;;;5033655;28;20052;-60
2021/07/08 07:33:13;;;;;;;31.80;29.52;;;11.90;99.90;;;;;;5032453;28;20040;-59
2021/07/08 07:35:41;;;;;;;32.58;30.58;;;12.00;99.90;;;;;;5033677;28;20363;-60
2021/07/08 07:38:11;;;;;;;34.60;32.33;;;11.90;99.90;;;;;;5033452;28;20028;-60
2021/07/08 07:40:45;;;;;;;34.22;32.17;;;12.00;99.90;;;;;;5033517;28;20061;-60
2021/07/08 07:43:13;;;;;;;41.25;38.20;;;12.00;99.90;;;;;;5033609;28;20033;-60
2021/07/08 07:45:41;;;;;;;38.42;35.65;;;11.90;99.90;;;;;;5032152;28;20032;-60
2021/07/08 07:48:10;;;;;;;40.85;37.92;;;11.80;99.90;;;;;;5032063;28;20037;-61
2021/07/08 07:50:38;;;;;;;38.38;35.70;;;11.80;99.90;;;;;;5033366;28;20097;-62
2021/07/08 07:53:05;;;;;;;39.30;36.67;;;11.70;99.90;;;;;;5033361;28;20029;-63
2021/07/08 07:55:33;;;;;;;40.15;37.58;;;11.60;99.90;;;;;;5033318;28;20022;-63
2021/07/08 07:58:03;;;;;;;42.25;39.28;;;11.50;99.90;;;;;;5033614;28;20423;-64
2021/07/08 08:00:30;;;;;;;42.40;39.50;;;11.40;99.90;;;;;;5033630;28;20049;-62
2021/07/08 08:02:59;;;;;;;41.45;38.65;;;11.30;99.90;;;;;;5033377;28;20026;-64
2021/07/08 08:10:43;;;;;;;41.80;38.83;;;11.30;99.90;;;;;;5033456;28;20095;-63
2021/07/08 08:13:12;;;;;;;41.70;38.83;;;11.40;99.90;;;;;;5031782;28;20030;-61
2021/07/08 08:15:39;;;;;;;43.20;39.90;;;11.40;99.90;;;;;;5033061;28;20022;-62
2021/07/08 08:18:07;;;;;;;43.85;40.50;;;11.50;99.90;;;;;;5033274;28;20025;-62
2021/07/08 08:20:34;;;;;;;42.58;39.40;;;11.50;99.90;;;;;;5033257;28;20022;-62
2021/07/08 08:23:02;;;;;;;43.55;40.13;;;11.50;99.90;;;;;;5033132;28;20025;-63
2021/07/08 08:25:30;;;;;;;43.30;40.20;;;11.50;99.90;;;;;;5031775;28;20116;-62
2021/07/08 08:27:58;;;;;;;44.65;40.65;;;11.60;99.90;;;;;;5031207;28;20045;-62
2021/07/08 08:30:26;;;;;;;42.35;39.13;;;11.60;99.90;;;;;;5033006;28;20029;-62
2021/07/08 08:32:53;;;;;;;42.53;39.40;;;11.60;99.90;;;;;;5032896;28;20033;-62
2021/07/08 08:35:21;;;;;;;44.50;40.70;;;11.60;99.90;;;;;;5032981;28;20022;-62
2021/07/08 08:37:48;;;;;;;44.65;41.05;;;11.70;99.90;;;;;;5032923;28;20029;-59
2021/07/08 08:40:16;;;;;;;43.13;39.63;;;11.80;99.90;;;;;;5032841;28;20022;-60
2021/07/08 08:42:44;;;;;;;43.25;40.03;;;11.70;99.90;;;;;;5032959;28;20021;-60
2021/07/08 08:45:15;;;;;;;42.92;39.88;;;11.70;99.90;;;;;;5033024;28;20025;-60
2021/07/08 08:48:03;;;;;;;43.92;40.70;;;11.70;99.90;;;;;;5032721;28;20025;-60
2021/07/08 08:50:42;;;;;;;44.20;41.00;;;11.80;99.90;;;;;;5032604;28;20032;-62
2021/07/08 08:53:11;;;;;;;43.58;40.17;;;11.70;99.90;;;;;;5032867;28;20022;-61
2021/07/08 08:55:40;;;;;;;44.42;41.03;;;11.60;99.90;;;;;;5032733;28;20032;-61
2021/07/08 08:58:10;;;;;;;44.58;41.10;;;11.50;99.90;;;;;;5032756;28;20479;-60
2021/07/08 09:00:42;;;;;;;46.45;42.75;;;11.40;99.90;;;;;;5032833;28;20032;-61
2021/07/08 09:03:14;;;;;;;46.60;42.92;;;11.40;99.90;;;;;;5031545;28;20025;-62
2021/07/08 09:05:48;;;;;;;45.55;41.88;;;11.30;99.90;;;;;;5031298;28;20525;-61
2021/07/08 09:08:16;;;;;;;47.60;43.65;;;11.30;99.90;;;;;;5031543;28;20037;-62
2021/07/08 09:10:49;;;;;;;48.40;44.45;;;11.30;99.90;;;;;;5032605;28;20026;-60
2021/07/08 09:13:17;;;;;;;48.78;44.88;;;11.30;99.90;;;;;;5032809;28;20498;-63
2021/07/08 09:15:44;;;;;;;46.42;42.72;;;11.30;99.90;;;;;;5032681;28;20026;-64
2021/07/08 09:18:13;;;;;;;46.65;42.95;;;11.30;99.90;;;;;;5032720;28;20077;-62
2021/07/08 09:20:41;;;;;;;46.15;42.22;;;11.20;99.90;;;;;;5032845;28;20029;-62
2021/07/08 09:23:17;;;;;;;47.25;43.30;;;11.20;99.90;;;;;;5032598;28;20456;-62
2021/07/08 09:25:46;;;;;;;46.78;42.78;;;11.20;99.90;;;;;;5032454;28;20104;-61
2021/07/08 09:28:22;;;;;;;46.15;42.53;;;11.20;99.90;;;;;;5032475;28;20111;-62
2021/07/08 09:31:05;;;;;;;47.40;43.15;;;11.20;99.90;;;;;;5032712;28;20036;-62
2021/07/08 09:33:41;;;;;;;46.60;42.53;;;11.20;99.90;;;;;;5032344;28;20052;-62
2021/07/08 09:36:10;;;;;;;47.30;43.08;;;11.10;99.90;;;;;;5032456;28;20030;-62
2021/07/08 09:38:40;;;;;;;46.85;43.05;;;11.10;99.90;;;;;;5033613;28;20028;-62
2021/07/08 09:41:18;;;;;;;47.15;43.47;;;11.10;99.90;;;;;;5035944;28;20037;-62
2021/07/08 09:43:46;;;;;;;44.95;41.25;;;11.00;99.90;;;;;;5035838;28;20445;-62
2021/07/08 09:46:15;;;;;;;47.03;43.03;;;11.00;99.90;;;;;;5035928;28;20018;-61
2021/07/08 09:49:09;;;;;;;46.55;42.85;;;11.00;99.90;;;;;;5035983;28;20022;-64
2021/07/08 09:51:37;;;;;;;48.42;44.47;;;11.00;99.90;;;;;;5035724;28;20021;-60
2021/07/08 09:54:07;;;;;;;49.53;45.22;;;11.00;99.90;;;;;;5035689;28;20105;-59
2021/07/08 09:56:49;;;;;;;51.75;47.75;;;11.00;99.90;;;;;;5035944;28;20390;-59
2021/07/08 09:59:21;;;;;;;47.78;43.70;;;11.10;99.90;;;;;;5035747;28;20105;-58
2021/07/08 10:01:59;;;;;;;52.42;46.13;;;11.10;99.90;;;;;;5035477;28;20033;-60
2021/07/08 10:04:27;;;;;;;49.35;45.70;;;11.00;99.90;;;;;;5035391;28;20049;-60
2021/07/08 10:06:55;;;;;;;49.75;45.42;;;11.00;99.90;;;;;;5035563;28;20390;-60
2021/07/08 10:09:24;;;;;;;47.55;43.47;;;10.90;99.90;;;;;;5035438;28;20112;-60
2021/07/08 10:11:55;;;;;;;50.55;46.33;;;10.80;99.90;;;;;;5035293;28;20037;-60
2021/07/08 10:14:24;;;;;;;50.05;45.92;;;10.80;99.90;;;;;;5035605;28;20021;-60
2021/07/08 10:16:54;;;;;;;48.85;44.58;;;10.70;99.90;;;;;;5035229;28;20022;-60
2021/07/08 10:19:23;;;;;;;49.03;45.13;;;10.70;99.90;;;;;;5035178;28;20078;-60
2021/07/08 10:21:53;;;;;;;49.72;45.45;;;10.70;99.90;;;;;;5035191;28;20309;-59
2021/07/08 10:24:21;;;;;;;49.08;45.03;;;10.60;99.90;;;;;;5035039;28;20021;-60
2021/07/08 10:26:49;;;;;;;47.90;43.80;;;10.70;99.90;;;;;;5035307;28;20397;-60
2021/07/08 10:29:17;;;;;;;48.55;44.50;;;10.70;99.90;;;;;;5035034;28;20030;-60
2021/07/08 10:31:50;;;;;;;47.03;43.40;;;10.60;99.90;;;;;;5034968;28;20025;-59
2021/07/08 10:34:21;;;;;;;48.42;44.45;;;10.70;99.90;;;;;;5033790;28;20054;-60
2021/07/08 10:36:51;;;;;;;47.72;43.88;;;10.60;99.90;;;;;;5034912;28;20029;-59
2021/07/08 10:39:23;;;;;;;49.60;45.60;;;10.60;99.90;;;;;;5034913;28;20509;-60
2021/07/08 10:41:59;;;;;;;50.08;46.35;;;10.70;99.90;;;;;;5034686;28;20032;-58
2021/07/08 10:44:48;;;;;;;52.50;48.50;;;10.60;99.90;;;;;;5033998;28;20029;-60
2021/07/08 10:47:39;;;;;;;48.55;44.67;;;10.50;99.90;;;;;;5034658;28;20061;-59
2021/07/08 10:50:28;;;;;;;;;;;10.50;99.90;;;;;;5034641;28;20017;-58
2021/07/08 10:52:56;;;;;;;51.22;47.47;;;10.50;99.90;;;;;;5034384;28;19908;-59
2021/07/08 10:55:39;;;;;;;51.90;47.83;;;10.40;99.90;;;;;;5034553;28;20105;-58
2021/07/08 10:58:23;;;;;;;52.30;47.88;;;10.40;99.90;;;;;;5034522;28;20104;-59
2021/07/08 11:00:50;;;;;;;53.97;49.78;;;10.30;99.90;;;;;;5034775;28;20506;-57
2021/07/08 11:03:42;;;;;;;52.50;48.47;;;10.20;99.90;;;;;;5034572;28;20492;-58
2021/07/08 11:06:28;;;;;;;52.85;48.58;;;10.20;99.90;;;;;;5034246;28;20045;-58
2021/07/08 11:09:17;;;;;;;52.13;48.35;;;10.10;99.90;;;;;;5034447;28;20108;-58
2021/07/08 11:11:48;;;;;;;53.88;49.53;;;10.20;99.90;;;;;;5034386;28;20036;-59
2021/07/08 11:14:17;;;;;;;53.13;49.00;;;10.10;99.90;;;;;;5034476;28;20103;-58
2021/07/08 11:16:53;;;;;;;53.55;49.63;;;10.20;99.90;;;;;;5034516;28;20048;-59
2021/07/08 11:19:20;;;;;;;53.85;49.75;;;10.20;99.90;;;;;;5034118;28;20453;-59
2021/07/08 11:21:55;;;;;;;52.55;48.38;;;10.20;99.90;;;;;;5034061;28;20025;-59
2021/07/08 11:24:50;;;;;;;53.65;49.60;;;10.20;99.90;;;;;;5032692;28;20120;-61
2021/07/08 11:27:34;;;;;;;52.58;48.88;;;10.30;99.90;;;;;;5033865;28;20033;-60
2021/07/08 11:30:26;;;;;;;54.22;50.00;;;10.40;99.90;;;;;;5033996;28;20095;-59
2021/07/08 11:32:56;;;;;;;53.28;49.50;;;10.30;99.90;;;;;;5029572;28;20167;-59
2021/07/08 11:35:34;;;;;;;52.97;49.10;;;10.30;99.90;;;;;;5033720;28;20484;-60
2021/07/08 11:38:15;;;;;;;54.17;49.58;;;10.30;99.90;;;;;;5033841;28;20029;-58
2021/07/08 11:40:44;;;;;;;54.70;50.60;;;10.20;99.90;;;;;;5033959;28;20467;-59
2021/07/08 11:43:28;;;;;;;55.88;52.17;;;10.10;99.90;;;;;;5032311;28;20394;-60
2021/07/08 11:46:03;;;;;;;53.25;49.55;;;10.10;99.90;;;;;;5033609;28;20458;-60
2021/07/08 11:48:43;;;;;;;53.20;49.53;;;10.00;99.90;;;;;;5033567;28;20037;-60
2021/07/08 11:51:16;;;;;;;52.67;49.05;;;9.90;99.90;;;;;;5032539;28;20036;-60
2021/07/08 11:53:44;;;;;;;53.85;49.92;;;10.00;99.90;;;;;;5033416;28;20026;-60
2021/07/08 11:56:15;;;;;;;51.45;48.00;;;10.00;99.90;;;;;;5033402;28;20026;-58
2021/07/08 11:58:43;;;;;;;54.50;50.42;;;9.90;99.90;;;;;;5033539;28;20033;-59
2021/07/08 12:01:12;;;;;;;55.83;51.92;;;9.90;99.90;;;;;;5033044;28;20041;-59
2021/07/08 12:03:43;;;;;;;53.75;49.90;;;9.80;99.90;;;;;;5032997;28;20036;-61
2021/07/08 12:06:12;;;;;;;55.95;51.90;;;9.80;99.90;;;;;;5031901;28;20121;-59
2021/07/08 12:08:45;;;;;;;55.03;51.13;;;9.80;99.90;;;;;;5033038;28;20052;-59
2021/07/08 12:11:19;;;;;;;57.63;53.55;;;9.80;99.90;;;;;;5032977;28;20104;-59
2021/07/08 12:13:54;;;;;;;56.53;52.42;;;9.80;99.90;;;;;;5033109;28;20022;-60
2021/07/08 12:16:31;;;;;;;59.88;55.50;;;9.80;99.90;;;;;;5033165;28;20030;-59
2021/07/08 12:19:01;;;;;;;52.60;48.80;;;9.90;99.90;;;;;;5033210;28;20026;-59
2021/07/08 12:21:30;;;;;;;59.47;55.17;;;9.90;99.90;;;;;;5032985;28;20029;-60
2021/07/08 12:24:04;;;;;;;56.25;51.85;;;9.80;99.90;;;;;;5033096;28;20076;-60
2021/07/08 12:26:43;;;;;;;59.70;55.55;;;9.80;99.90;;;;;;5032881;28;20429;-58
2021/07/08 12:29:29;;;;;;;56.03;51.83;;;9.80;99.90;;;;;;5033079;28;20021;-60
2021/07/08 12:32:09;;;;;;;58.78;54.40;;;9.80;99.90;;;;;;5032944;28;20514;-60
2021/07/08 12:34:49;;;;;;;57.33;53.10;;;9.80;99.90;;;;;;5032869;28;20022;-60
2021/07/08 12:37:30;;;;;;;59.00;54.42;;;9.80;99.90;;;;;;5032900;28;20026;-60
2021/07/08 12:40:19;;;;;;;57.75;53.35;;;9.80;99.90;;;;;;5032796;28;20034;-59
2021/07/08 12:42:49;;;;;;;59.80;55.30;;;9.80;99.90;;;;;;5032852;28;20209;-59
2021/07/08 12:45:21;;;;;;;59.40;54.90;;;9.80;99.90;;;;;;5032818;28;20506;-60
2021/07/08 12:47:51;;;;;;;60.75;56.28;;;9.80;99.90;;;;;;5032643;28;20030;-59
2021/07/08 12:50:21;;;;;;;58.25;54.00;;;9.80;99.90;;;;;;5031624;28;20037;-60
2021/07/08 12:52:49;;;;;;;62.10;57.63;;;9.80;99.90;;;;;;5032583;28;20025;-60